Terminal Aerodrome Forecast
Issued by NWS Boston, MA

Current Version | Previous Version | Text Only | Print | Product List | Glossary On
Versions: 1 2 3 4 5 6 7 8 9 10 11 12 13 14 15 16 17 18 19 20 21
000 FTUS41 KBOX 252012 AAA TAFPVD TAF AMD KPVD 252012Z 2520/2618 24009KT P6SM FEW200 FM260200 23009KT P6SM SCT050 FM260300 23012KT P6SM BKN050 FM260700 25015KT P6SM SCT150 FM261300 28012G21KT P6SM SCT250=

USA.gov is the U.S. government's official web portal to all federal, state and local government web resources and services.